sensor_id;sensor_type;location;lat;lon;timestamp;P1;durP1;ratioP1;P2;durP2;ratioP2
77466;SDS011;66564;42.482;25.548;2023-02-13T00:01:49;16.08;;;8.00;;
77466;SDS011;66564;42.482;25.548;2023-02-13T00:05:14;16.55;;;8.23;;
77466;SDS011;66564;42.482;25.548;2023-02-13T00:08:39;24.95;;;12.57;;
77466;SDS011;66564;42.482;25.548;2023-02-13T00:12:05;17.60;;;9.02;;
77466;SDS011;66564;42.482;25.548;2023-02-13T00:15:30;16.70;;;8.45;;
77466;SDS011;66564;42.482;25.548;2023-02-13T00:19:00;14.90;;;7.70;;
77466;SDS011;66564;42.482;25.548;2023-02-13T00:22:26;20.42;;;9.07;;
77466;SDS011;66564;42.482;25.548;2023-02-13T00:25:51;16.77;;;8.98;;
77466;SDS011;66564;42.482;25.548;2023-02-13T00:29:16;13.00;;;7.55;;
77466;SDS011;66564;42.482;25.548;2023-02-13T00:32:41;16.35;;;8.25;;
77466;SDS011;66564;42.482;25.548;2023-02-13T00:36:11;14.52;;;7.95;;
77466;SDS011;66564;42.482;25.548;2023-02-13T00:39:35;20.58;;;9.02;;
77466;SDS011;66564;42.482;25.548;2023-02-13T00:43:00;15.35;;;7.85;;
77466;SDS011;66564;42.482;25.548;2023-02-13T00:46:25;20.02;;;9.20;;
77466;SDS011;66564;42.482;25.548;2023-02-13T00:49:52;13.90;;;8.18;;
77466;SDS011;66564;42.482;25.548;2023-02-13T00:53:20;15.48;;;8.20;;
77466;SDS011;66564;42.482;25.548;2023-02-13T00:56:45;16.73;;;8.98;;
77466;SDS011;66564;42.482;25.548;2023-02-13T01:00:10;14.15;;;7.55;;
77466;SDS011;66564;42.482;25.548;2023-02-13T01:03:35;16.23;;;7.72;;
77466;SDS011;66564;42.482;25.548;2023-02-13T01:07:00;15.15;;;8.25;;
77466;SDS011;66564;42.482;25.548;2023-02-13T01:10:26;18.27;;;8.50;;
77466;SDS011;66564;42.482;25.548;2023-02-13T01:12:51;13.30;;;7.80;;
77466;SDS011;66564;42.482;25.548;2023-02-13T01:16:17;15.85;;;8.07;;
77466;SDS011;66564;42.482;25.548;2023-02-13T01:19:42;16.77;;;8.07;;
77466;SDS011;66564;42.482;25.548;2023-02-13T01:23:07;14.20;;;8.00;;
77466;SDS011;66564;42.482;25.548;2023-02-13T01:26:35;15.50;;;7.88;;
77466;SDS011;66564;42.482;25.548;2023-02-13T01:30:00;15.18;;;7.90;;
77466;SDS011;66564;42.482;25.548;2023-02-13T01:33:27;13.45;;;7.43;;
77466;SDS011;66564;42.482;25.548;2023-02-13T01:36:51;13.45;;;8.20;;
77466;SDS011;66564;42.482;25.548;2023-02-13T01:40:16;15.07;;;7.93;;
77466;SDS011;66564;42.482;25.548;2023-02-13T01:43:52;15.63;;;8.10;;
77466;SDS011;66564;42.482;25.548;2023-02-13T01:47:07;15.48;;;8.73;;
77466;SDS011;66564;42.482;25.548;2023-02-13T01:50:46;16.60;;;7.82;;
77466;SDS011;66564;42.482;25.548;2023-02-13T01:54:10;16.55;;;7.75;;
77466;SDS011;66564;42.482;25.548;2023-02-13T01:57:34;16.35;;;7.45;;
77466;SDS011;66564;42.482;25.548;2023-02-13T02:01:02;14.70;;;8.65;;
77466;SDS011;66564;42.482;25.548;2023-02-13T02:04:28;16.25;;;7.93;;
77466;SDS011;66564;42.482;25.548;2023-02-13T02:07:53;15.27;;;8.13;;
77466;SDS011;66564;42.482;25.548;2023-02-13T02:11:23;17.45;;;7.75;;
77466;SDS011;66564;42.482;25.548;2023-02-13T02:14:29;16.38;;;9.02;;
77466;SDS011;66564;42.482;25.548;2023-02-13T02:17:54;16.85;;;8.13;;
77466;SDS011;66564;42.482;25.548;2023-02-13T02:21:31;17.92;;;9.02;;
77466;SDS011;66564;42.482;25.548;2023-02-13T02:43:08;19.38;;;8.55;;
77466;SDS011;66564;42.482;25.548;2023-02-13T02:52:58;20.98;;;9.70;;
77466;SDS011;66564;42.482;25.548;2023-02-13T02:58:46;18.05;;;8.82;;
77466;SDS011;66564;42.482;25.548;2023-02-13T03:02:07;22.23;;;9.55;;
77466;SDS011;66564;42.482;25.548;2023-02-13T03:05:31;18.52;;;9.35;;
77466;SDS011;66564;42.482;25.548;2023-02-13T03:08:57;23.10;;;11.77;;
77466;SDS011;66564;42.482;25.548;2023-02-13T03:12:22;21.55;;;11.05;;
77466;SDS011;66564;42.482;25.548;2023-02-13T03:15:40;19.40;;;10.15;;
77466;SDS011;66564;42.482;25.548;2023-02-13T03:19:03;18.17;;;10.63;;
77466;SDS011;66564;42.482;25.548;2023-02-13T03:22:10;20.02;;;11.20;;
77466;SDS011;66564;42.482;25.548;2023-02-13T03:25:20;19.67;;;10.38;;
77466;SDS011;66564;42.482;25.548;2023-02-13T03:28:26;23.15;;;11.85;;
77466;SDS011;66564;42.482;25.548;2023-02-13T03:32:06;22.98;;;11.55;;
77466;SDS011;66564;42.482;25.548;2023-02-13T03:38:29;21.40;;;10.70;;
77466;SDS011;66564;42.482;25.548;2023-02-13T03:42:05;20.67;;;11.45;;
77466;SDS011;66564;42.482;25.548;2023-02-13T03:45:36;20.92;;;10.70;;
77466;SDS011;66564;42.482;25.548;2023-02-13T03:49:01;17.95;;;9.65;;
77466;SDS011;66564;42.482;25.548;2023-02-13T03:52:26;19.20;;;10.98;;
77466;SDS011;66564;42.482;25.548;2023-02-13T03:56:04;19.70;;;10.52;;
77466;SDS011;66564;42.482;25.548;2023-02-13T03:59:29;19.65;;;9.38;;
77466;SDS011;66564;42.482;25.548;2023-02-13T04:02:56;22.13;;;10.10;;
77466;SDS011;66564;42.482;25.548;2023-02-13T04:06:19;17.65;;;9.10;;
77466;SDS011;66564;42.482;25.548;2023-02-13T04:08:47;18.75;;;9.27;;
77466;SDS011;66564;42.482;25.548;2023-02-13T04:12:15;19.05;;;9.88;;
77466;SDS011;66564;42.482;25.548;2023-02-13T04:15:19;17.33;;;8.85;;
77466;SDS011;66564;42.482;25.548;2023-02-13T04:18:43;18.38;;;9.65;;
77466;SDS011;66564;42.482;25.548;2023-02-13T04:22:10;14.77;;;8.45;;
77466;SDS011;66564;42.482;25.548;2023-02-13T04:25:33;18.05;;;10.02;;
77466;SDS011;66564;42.482;25.548;2023-02-13T04:28:58;18.52;;;9.40;;
77466;SDS011;66564;42.482;25.548;2023-02-13T04:32:23;19.23;;;9.98;;
77466;SDS011;66564;42.482;25.548;2023-02-13T04:35:49;21.88;;;10.02;;
77466;SDS011;66564;42.482;25.548;2023-02-13T04:39:14;20.10;;;9.77;;
77466;SDS011;66564;42.482;25.548;2023-02-13T04:42:39;21.52;;;10.38;;
77466;SDS011;66564;42.482;25.548;2023-02-13T04:46:04;18.17;;;8.70;;
77466;SDS011;66564;42.482;25.548;2023-02-13T04:49:30;20.20;;;10.65;;
77466;SDS011;66564;42.482;25.548;2023-02-13T04:52:55;19.08;;;9.77;;
77466;SDS011;66564;42.482;25.548;2023-02-13T04:56:20;14.85;;;8.98;;
77466;SDS011;66564;42.482;25.548;2023-02-13T04:59:45;20.95;;;10.57;;
77466;SDS011;66564;42.482;25.548;2023-02-13T05:03:11;19.33;;;10.45;;
77466;SDS011;66564;42.482;25.548;2023-02-13T05:06:36;19.60;;;9.93;;
77466;SDS011;66564;42.482;25.548;2023-02-13T05:10:01;18.13;;;9.82;;
77466;SDS011;66564;42.482;25.548;2023-02-13T05:13:26;20.10;;;9.77;;
77466;SDS011;66564;42.482;25.548;2023-02-13T05:16:52;19.58;;;10.77;;
77466;SDS011;66564;42.482;25.548;2023-02-13T05:19:17;19.73;;;9.57;;
77466;SDS011;66564;42.482;25.548;2023-02-13T05:22:43;18.55;;;9.63;;
77466;SDS011;66564;42.482;25.548;2023-02-13T05:26:08;20.02;;;10.10;;
77466;SDS011;66564;42.482;25.548;2023-02-13T05:29:33;19.92;;;10.10;;
77466;SDS011;66564;42.482;25.548;2023-02-13T05:32:58;21.25;;;9.95;;
77466;SDS011;66564;42.482;25.548;2023-02-13T05:36:23;18.95;;;10.23;;
77466;SDS011;66564;42.482;25.548;2023-02-13T05:39:48;21.33;;;10.95;;
77466;SDS011;66564;42.482;25.548;2023-02-13T05:43:14;18.40;;;9.35;;
77466;SDS011;66564;42.482;25.548;2023-02-13T05:46:40;18.60;;;11.18;;
77466;SDS011;66564;42.482;25.548;2023-02-13T05:50:04;20.10;;;10.25;;
77466;SDS011;66564;42.482;25.548;2023-02-13T05:53:30;18.23;;;9.77;;
77466;SDS011;66564;42.482;25.548;2023-02-13T05:56:55;19.52;;;10.35;;
77466;SDS011;66564;42.482;25.548;2023-02-13T06:00:20;18.67;;;10.48;;
77466;SDS011;66564;42.482;25.548;2023-02-13T06:03:45;18.10;;;9.50;;
77466;SDS011;66564;42.482;25.548;2023-02-13T06:07:11;21.40;;;10.75;;
77466;SDS011;66564;42.482;25.548;2023-02-13T06:10:36;22.20;;;11.52;;
77466;SDS011;66564;42.482;25.548;2023-02-13T06:14:01;18.60;;;11.15;;
77466;SDS011;66564;42.482;25.548;2023-02-13T06:17:26;17.30;;;10.02;;
77466;SDS011;66564;42.482;25.548;2023-02-13T06:20:51;20.92;;;9.95;;
77466;SDS011;66564;42.482;25.548;2023-02-13T06:24:19;17.67;;;10.50;;
77466;SDS011;66564;42.482;25.548;2023-02-13T06:27:45;17.35;;;10.50;;
77466;SDS011;66564;42.482;25.548;2023-02-13T06:30:10;17.95;;;11.02;;
77466;SDS011;66564;42.482;25.548;2023-02-13T06:33:36;18.60;;;10.13;;
77466;SDS011;66564;42.482;25.548;2023-02-13T06:37:01;23.45;;;11.55;;
77466;SDS011;66564;42.482;25.548;2023-02-13T06:40:26;20.25;;;11.02;;
77466;SDS011;66564;42.482;25.548;2023-02-13T06:43:51;18.05;;;10.48;;
77466;SDS011;66564;42.482;25.548;2023-02-13T06:47:17;21.38;;;11.20;;
77466;SDS011;66564;42.482;25.548;2023-02-13T06:50:48;19.00;;;11.63;;
77466;SDS011;66564;42.482;25.548;2023-02-13T06:54:13;17.75;;;10.50;;
77466;SDS011;66564;42.482;25.548;2023-02-13T06:57:38;20.15;;;11.85;;
77466;SDS011;66564;42.482;25.548;2023-02-13T07:01:03;18.85;;;10.60;;
77466;SDS011;66564;42.482;25.548;2023-02-13T07:04:29;21.38;;;11.48;;
77466;SDS011;66564;42.482;25.548;2023-02-13T07:07:54;17.58;;;10.90;;
77466;SDS011;66564;42.482;25.548;2023-02-13T07:11:20;18.58;;;10.93;;
77466;SDS011;66564;42.482;25.548;2023-02-13T07:14:44;19.48;;;10.85;;
77466;SDS011;66564;42.482;25.548;2023-02-13T07:18:10;20.20;;;12.52;;
77466;SDS011;66564;42.482;25.548;2023-02-13T07:21:35;18.35;;;10.18;;
77466;SDS011;66564;42.482;25.548;2023-02-13T07:25:00;18.02;;;10.85;;
77466;SDS011;66564;42.482;25.548;2023-02-13T07:28:26;18.83;;;10.60;;
77466;SDS011;66564;42.482;25.548;2023-02-13T07:31:51;17.33;;;10.55;;
77466;SDS011;66564;42.482;25.548;2023-02-13T07:35:16;19.13;;;11.38;;
77466;SDS011;66564;42.482;25.548;2023-02-13T07:38:41;19.70;;;11.65;;
77466;SDS011;66564;42.482;25.548;2023-02-13T07:42:06;17.17;;;10.43;;
77466;SDS011;66564;42.482;25.548;2023-02-13T07:45:31;21.30;;;11.82;;
77466;SDS011;66564;42.482;25.548;2023-02-13T07:48:57;18.50;;;10.30;;
77466;SDS011;66564;42.482;25.548;2023-02-13T07:52:22;19.13;;;11.02;;
77466;SDS011;66564;42.482;25.548;2023-02-13T07:55:47;19.08;;;11.45;;
77466;SDS011;66564;42.482;25.548;2023-02-13T07:59:13;18.67;;;12.10;;
77466;SDS011;66564;42.482;25.548;2023-02-13T08:02:38;16.50;;;11.73;;
77466;SDS011;66564;42.482;25.548;2023-02-13T08:06:03;20.48;;;11.50;;
77466;SDS011;66564;42.482;25.548;2023-02-13T08:09:30;20.55;;;11.32;;
77466;SDS011;66564;42.482;25.548;2023-02-13T08:12:54;18.48;;;11.52;;
77466;SDS011;66564;42.482;25.548;2023-02-13T08:15:19;19.10;;;11.27;;
77466;SDS011;66564;42.482;25.548;2023-02-13T08:18:45;19.05;;;11.00;;
77466;SDS011;66564;42.482;25.548;2023-02-13T08:22:10;16.52;;;10.85;;
77466;SDS011;66564;42.482;25.548;2023-02-13T08:25:44;18.73;;;11.32;;
77466;SDS011;66564;42.482;25.548;2023-02-13T08:29:10;19.65;;;11.02;;
77466;SDS011;66564;42.482;25.548;2023-02-13T08:32:35;19.67;;;12.13;;
77466;SDS011;66564;42.482;25.548;2023-02-13T08:36:01;17.58;;;11.18;;
77466;SDS011;66564;42.482;25.548;2023-02-13T08:39:28;17.55;;;11.50;;
77466;SDS011;66564;42.482;25.548;2023-02-13T08:43:02;19.00;;;10.90;;
77466;SDS011;66564;42.482;25.548;2023-02-13T08:46:24;17.05;;;10.93;;
77466;SDS011;66564;42.482;25.548;2023-02-13T08:49:51;19.88;;;11.50;;
77466;SDS011;66564;42.482;25.548;2023-02-13T08:53:16;17.48;;;10.25;;
77466;SDS011;66564;42.482;25.548;2023-02-13T08:56:41;16.48;;;10.38;;
77466;SDS011;66564;42.482;25.548;2023-02-13T09:00:07;17.25;;;11.48;;
77466;SDS011;66564;42.482;25.548;2023-02-13T09:03:32;15.98;;;10.70;;
77466;SDS011;66564;42.482;25.548;2023-02-13T09:06:57;15.07;;;10.25;;
77466;SDS011;66564;42.482;25.548;2023-02-13T09:10:22;17.63;;;11.88;;
77466;SDS011;66564;42.482;25.548;2023-02-13T09:13:48;17.63;;;10.98;;
77466;SDS011;66564;42.482;25.548;2023-02-13T09:17:14;17.13;;;10.65;;
77466;SDS011;66564;42.482;25.548;2023-02-13T09:20:39;16.95;;;11.18;;
77466;SDS011;66564;42.482;25.548;2023-02-13T09:24:11;16.75;;;9.85;;
77466;SDS011;66564;42.482;25.548;2023-02-13T09:26:36;16.38;;;10.35;;
77466;SDS011;66564;42.482;25.548;2023-02-13T09:30:01;21.42;;;10.45;;
77466;SDS011;66564;42.482;25.548;2023-02-13T09:33:27;15.80;;;10.30;;
77466;SDS011;66564;42.482;25.548;2023-02-13T09:36:52;16.42;;;9.88;;
77466;SDS011;66564;42.482;25.548;2023-02-13T09:40:22;14.35;;;8.85;;
77466;SDS011;66564;42.482;25.548;2023-02-13T09:46:56;17.17;;;10.48;;
77466;SDS011;66564;42.482;25.548;2023-02-13T09:52:47;19.05;;;10.90;;
77466;SDS011;66564;42.482;25.548;2023-02-13T09:56:15;16.17;;;9.25;;
77466;SDS011;66564;42.482;25.548;2023-02-13T10:06:03;16.45;;;10.55;;
77466;SDS011;66564;42.482;25.548;2023-02-13T10:09:40;17.52;;;10.23;;
77466;SDS011;66564;42.482;25.548;2023-02-13T10:16:07;14.73;;;9.90;;
77466;SDS011;66564;42.482;25.548;2023-02-13T10:19:43;14.48;;;9.68;;
77466;SDS011;66564;42.482;25.548;2023-02-13T10:22:48;16.88;;;9.77;;
77466;SDS011;66564;42.482;25.548;2023-02-13T10:26:04;16.02;;;9.50;;
77466;SDS011;66564;42.482;25.548;2023-02-13T10:32:59;16.75;;;10.45;;
77466;SDS011;66564;42.482;25.548;2023-02-13T10:47:26;16.38;;;9.25;;
77466;SDS011;66564;42.482;25.548;2023-02-13T10:50:28;15.30;;;9.90;;
77466;SDS011;66564;42.482;25.548;2023-02-13T10:55:43;12.80;;;8.35;;
77466;SDS011;66564;42.482;25.548;2023-02-13T11:01:08;17.27;;;9.00;;
77466;SDS011;66564;42.482;25.548;2023-02-13T11:03:48;14.63;;;8.27;;
77466;SDS011;66564;42.482;25.548;2023-02-13T11:06:27;15.40;;;9.90;;
77466;SDS011;66564;42.482;25.548;2023-02-13T11:08:54;13.25;;;9.00;;
77466;SDS011;66564;42.482;25.548;2023-02-13T11:14:18;15.50;;;8.52;;
77466;SDS011;66564;42.482;25.548;2023-02-13T11:16:55;13.05;;;8.43;;
77466;SDS011;66564;42.482;25.548;2023-02-13T11:19:31;13.25;;;8.85;;
77466;SDS011;66564;42.482;25.548;2023-02-13T11:22:08;13.88;;;8.98;;
77466;SDS011;66564;42.482;25.548;2023-02-13T11:24:38;12.05;;;8.75;;
77466;SDS011;66564;42.482;25.548;2023-02-13T11:27:06;13.18;;;8.88;;
77466;SDS011;66564;42.482;25.548;2023-02-13T11:29:37;12.23;;;8.73;;
77466;SDS011;66564;42.482;25.548;2023-02-13T11:32:22;16.63;;;9.35;;
77466;SDS011;66564;42.482;25.548;2023-02-13T11:34:49;12.77;;;8.23;;
77466;SDS011;66564;42.482;25.548;2023-02-13T11:37:33;11.85;;;8.07;;
77466;SDS011;66564;42.482;25.548;2023-02-13T11:39:59;12.70;;;8.18;;
77466;SDS011;66564;42.482;25.548;2023-02-13T11:42:44;12.40;;;8.43;;
77466;SDS011;66564;42.482;25.548;2023-02-13T11:45:21;12.40;;;8.98;;
77466;SDS011;66564;42.482;25.548;2023-02-13T11:47:48;13.95;;;9.30;;
77466;SDS011;66564;42.482;25.548;2023-02-13T11:50:32;16.63;;;9.35;;
77466;SDS011;66564;42.482;25.548;2023-02-13T11:53:07;10.63;;;8.35;;
77466;SDS011;66564;42.482;25.548;2023-02-13T11:55:43;13.20;;;8.27;;
77466;SDS011;66564;42.482;25.548;2023-02-13T12:00:39;14.02;;;8.82;;
77466;SDS011;66564;42.482;25.548;2023-02-13T12:06:11;15.27;;;9.00;;
77466;SDS011;66564;42.482;25.548;2023-02-13T12:08:40;12.02;;;8.75;;
77466;SDS011;66564;42.482;25.548;2023-02-13T12:13:41;10.93;;;7.78;;
77466;SDS011;66564;42.482;25.548;2023-02-13T12:18:58;11.75;;;7.97;;
77466;SDS011;66564;42.482;25.548;2023-02-13T13:06:03;10.73;;;7.15;;
77466;SDS011;66564;42.482;25.548;2023-02-13T13:14:22;9.85;;;7.13;;
77466;SDS011;66564;42.482;25.548;2023-02-13T13:27:41;12.40;;;7.40;;
77466;SDS011;66564;42.482;25.548;2023-02-13T13:30:17;11.18;;;7.53;;
77466;SDS011;66564;42.482;25.548;2023-02-13T13:32:47;11.32;;;7.53;;
77466;SDS011;66564;42.482;25.548;2023-02-13T13:35:18;12.80;;;8.45;;
77466;SDS011;66564;42.482;25.548;2023-02-13T13:40:44;12.20;;;8.68;;
77466;SDS011;66564;42.482;25.548;2023-02-13T13:43:24;15.15;;;9.20;;
77466;SDS011;66564;42.482;25.548;2023-02-13T13:48:38;11.93;;;8.23;;
77466;SDS011;66564;42.482;25.548;2023-02-13T13:51:15;14.40;;;8.43;;
77466;SDS011;66564;42.482;25.548;2023-02-13T14:07:41;14.32;;;8.57;;
77466;SDS011;66564;42.482;25.548;2023-02-13T14:10:58;12.23;;;8.93;;
77466;SDS011;66564;42.482;25.548;2023-02-13T14:13:27;11.55;;;7.90;;
77466;SDS011;66564;42.482;25.548;2023-02-13T14:16:04;11.55;;;7.78;;
77466;SDS011;66564;42.482;25.548;2023-02-13T14:18:37;16.15;;;8.63;;
77466;SDS011;66564;42.482;25.548;2023-02-13T14:21:10;12.05;;;8.38;;
77466;SDS011;66564;42.482;25.548;2023-02-13T14:34:22;12.48;;;8.63;;
77466;SDS011;66564;42.482;25.548;2023-02-13T14:36:41;12.50;;;8.10;;
77466;SDS011;66564;42.482;25.548;2023-02-13T14:47:21;11.98;;;8.38;;
77466;SDS011;66564;42.482;25.548;2023-02-13T14:49:47;11.30;;;7.82;;
77466;SDS011;66564;42.482;25.548;2023-02-13T14:52:17;12.50;;;8.25;;
77466;SDS011;66564;42.482;25.548;2023-02-13T14:54:54;10.20;;;7.47;;
77466;SDS011;66564;42.482;25.548;2023-02-13T14:57:37;15.55;;;9.07;;
77466;SDS011;66564;42.482;25.548;2023-02-13T15:01:04;14.70;;;8.80;;
77466;SDS011;66564;42.482;25.548;2023-02-13T15:04:29;13.10;;;8.50;;
77466;SDS011;66564;42.482;25.548;2023-02-13T15:08:10;13.98;;;8.75;;
77466;SDS011;66564;42.482;25.548;2023-02-13T15:11:40;14.68;;;8.48;;
77466;SDS011;66564;42.482;25.548;2023-02-13T15:15:04;14.48;;;7.90;;
77466;SDS011;66564;42.482;25.548;2023-02-13T15:18:16;13.10;;;8.13;;
77466;SDS011;66564;42.482;25.548;2023-02-13T15:20:48;12.13;;;7.68;;
77466;SDS011;66564;42.482;25.548;2023-02-13T15:23:23;12.15;;;8.40;;
77466;SDS011;66564;42.482;25.548;2023-02-13T15:25:56;13.43;;;8.43;;
77466;SDS011;66564;42.482;25.548;2023-02-13T15:28:33;12.00;;;6.95;;
77466;SDS011;66564;42.482;25.548;2023-02-13T15:31:46;11.77;;;7.75;;
77466;SDS011;66564;42.482;25.548;2023-02-13T15:38:32;10.65;;;6.68;;
77466;SDS011;66564;42.482;25.548;2023-02-13T15:42:09;11.57;;;7.25;;
77466;SDS011;66564;42.482;25.548;2023-02-13T15:45:33;11.77;;;7.40;;
77466;SDS011;66564;42.482;25.548;2023-02-13T15:48:59;18.00;;;10.13;;
77466;SDS011;66564;42.482;25.548;2023-02-13T15:51:30;15.27;;;9.52;;
77466;SDS011;66564;42.482;25.548;2023-02-13T15:54:00;18.48;;;10.02;;
77466;SDS011;66564;42.482;25.548;2023-02-13T15:56:28;15.77;;;9.65;;
77466;SDS011;66564;42.482;25.548;2023-02-13T15:58:55;14.32;;;8.38;;
77466;SDS011;66564;42.482;25.548;2023-02-13T16:01:22;13.15;;;8.55;;
77466;SDS011;66564;42.482;25.548;2023-02-13T16:03:49;13.02;;;8.15;;
77466;SDS011;66564;42.482;25.548;2023-02-13T16:06:18;10.95;;;7.90;;
77466;SDS011;66564;42.482;25.548;2023-02-13T16:08:55;15.32;;;7.97;;
77466;SDS011;66564;42.482;25.548;2023-02-13T16:11:23;12.27;;;8.02;;
77466;SDS011;66564;42.482;25.548;2023-02-13T16:16:59;15.18;;;8.43;;
77466;SDS011;66564;42.482;25.548;2023-02-13T16:20:24;16.20;;;8.40;;
77466;SDS011;66564;42.482;25.548;2023-02-13T16:23:50;13.98;;;7.90;;
77466;SDS011;66564;42.482;25.548;2023-02-13T16:27:14;14.88;;;8.13;;
77466;SDS011;66564;42.482;25.548;2023-02-13T16:29:44;16.20;;;9.18;;
77466;SDS011;66564;42.482;25.548;2023-02-13T16:33:10;14.77;;;8.30;;
77466;SDS011;66564;42.482;25.548;2023-02-13T16:36:37;18.42;;;8.55;;
77466;SDS011;66564;42.482;25.548;2023-02-13T16:43:35;13.45;;;8.65;;
77466;SDS011;66564;42.482;25.548;2023-02-13T16:47:02;14.93;;;7.90;;
77466;SDS011;66564;42.482;25.548;2023-02-13T16:50:27;12.48;;;8.75;;
77466;SDS011;66564;42.482;25.548;2023-02-13T16:53:56;15.00;;;8.35;;
77466;SDS011;66564;42.482;25.548;2023-02-13T16:56:26;15.70;;;9.75;;
77466;SDS011;66564;42.482;25.548;2023-02-13T16:59:05;17.27;;;9.45;;
77466;SDS011;66564;42.482;25.548;2023-02-13T17:01:44;16.08;;;8.98;;
77466;SDS011;66564;42.482;25.548;2023-02-13T17:04:27;14.75;;;8.50;;
77466;SDS011;66564;42.482;25.548;2023-02-13T17:09:18;12.82;;;8.10;;
77466;SDS011;66564;42.482;25.548;2023-02-13T17:11:44;13.10;;;8.52;;
77466;SDS011;66564;42.482;25.548;2023-02-13T17:14:35;14.40;;;8.80;;
77466;SDS011;66564;42.482;25.548;2023-02-13T17:17:08;16.75;;;9.50;;
77466;SDS011;66564;42.482;25.548;2023-02-13T17:19:47;15.27;;;8.32;;
77466;SDS011;66564;42.482;25.548;2023-02-13T17:22:17;13.75;;;8.38;;
77466;SDS011;66564;42.482;25.548;2023-02-13T17:24:54;14.88;;;8.90;;
77466;SDS011;66564;42.482;25.548;2023-02-13T17:27:22;16.55;;;9.18;;
77466;SDS011;66564;42.482;25.548;2023-02-13T17:29:48;14.43;;;8.07;;
77466;SDS011;66564;42.482;25.548;2023-02-13T17:32:18;16.88;;;9.07;;
77466;SDS011;66564;42.482;25.548;2023-02-13T17:34:47;14.23;;;9.25;;
77466;SDS011;66564;42.482;25.548;2023-02-13T17:37:16;15.20;;;9.75;;
77466;SDS011;66564;42.482;25.548;2023-02-13T17:39:46;15.93;;;9.82;;
77466;SDS011;66564;42.482;25.548;2023-02-13T17:42:14;14.07;;;8.60;;
77466;SDS011;66564;42.482;25.548;2023-02-13T17:44:44;15.65;;;8.45;;
77466;SDS011;66564;42.482;25.548;2023-02-13T17:47:10;16.80;;;9.38;;
77466;SDS011;66564;42.482;25.548;2023-02-13T17:49:36;17.10;;;10.20;;
77466;SDS011;66564;42.482;25.548;2023-02-13T17:52:01;17.08;;;9.63;;
77466;SDS011;66564;42.482;25.548;2023-02-13T17:54:27;15.63;;;9.23;;
77466;SDS011;66564;42.482;25.548;2023-02-13T17:56:53;14.50;;;8.77;;
77466;SDS011;66564;42.482;25.548;2023-02-13T17:59:19;17.60;;;10.32;;
77466;SDS011;66564;42.482;25.548;2023-02-13T18:01:44;18.80;;;9.95;;
77466;SDS011;66564;42.482;25.548;2023-02-13T18:04:10;17.48;;;9.45;;
77466;SDS011;66564;42.482;25.548;2023-02-13T18:06:35;19.17;;;10.27;;
77466;SDS011;66564;42.482;25.548;2023-02-13T18:09:02;15.20;;;9.15;;
77466;SDS011;66564;42.482;25.548;2023-02-13T18:11:28;17.08;;;9.57;;
77466;SDS011;66564;42.482;25.548;2023-02-13T18:13:54;17.88;;;8.60;;
77466;SDS011;66564;42.482;25.548;2023-02-13T18:16:19;16.45;;;9.73;;
77466;SDS011;66564;42.482;25.548;2023-02-13T18:18:49;16.77;;;9.25;;
77466;SDS011;66564;42.482;25.548;2023-02-13T18:21:15;15.57;;;9.73;;
77466;SDS011;66564;42.482;25.548;2023-02-13T18:23:40;17.08;;;9.75;;
77466;SDS011;66564;42.482;25.548;2023-02-13T18:26:07;17.10;;;10.20;;
77466;SDS011;66564;42.482;25.548;2023-02-13T18:28:34;14.50;;;8.38;;
77466;SDS011;66564;42.482;25.548;2023-02-13T18:31:02;22.13;;;10.77;;
77466;SDS011;66564;42.482;25.548;2023-02-13T18:33:28;15.13;;;8.73;;
77466;SDS011;66564;42.482;25.548;2023-02-13T18:35:57;15.15;;;9.00;;
77466;SDS011;66564;42.482;25.548;2023-02-13T18:38:24;17.33;;;10.57;;
77466;SDS011;66564;42.482;25.548;2023-02-13T18:40:49;18.30;;;9.77;;
77466;SDS011;66564;42.482;25.548;2023-02-13T18:43:15;17.85;;;10.00;;
77466;SDS011;66564;42.482;25.548;2023-02-13T18:45:40;15.75;;;8.50;;
77466;SDS011;66564;42.482;25.548;2023-02-13T18:48:06;15.10;;;8.93;;
77466;SDS011;66564;42.482;25.548;2023-02-13T18:50:32;14.88;;;9.00;;
77466;SDS011;66564;42.482;25.548;2023-02-13T18:52:57;16.80;;;9.43;;
77466;SDS011;66564;42.482;25.548;2023-02-13T18:55:23;14.57;;;8.05;;
77466;SDS011;66564;42.482;25.548;2023-02-13T18:57:54;13.90;;;8.88;;
77466;SDS011;66564;42.482;25.548;2023-02-13T19:00:23;13.05;;;7.93;;
77466;SDS011;66564;42.482;25.548;2023-02-13T19:02:51;12.73;;;8.60;;
77466;SDS011;66564;42.482;25.548;2023-02-13T19:05:18;12.55;;;7.25;;
77466;SDS011;66564;42.482;25.548;2023-02-13T19:07:44;15.05;;;8.23;;
77466;SDS011;66564;42.482;25.548;2023-02-13T19:10:10;13.02;;;7.32;;
77466;SDS011;66564;42.482;25.548;2023-02-13T19:12:35;13.10;;;7.78;;
77466;SDS011;66564;42.482;25.548;2023-02-13T19:15:02;13.52;;;7.90;;
77466;SDS011;66564;42.482;25.548;2023-02-13T19:17:28;12.90;;;7.13;;
77466;SDS011;66564;42.482;25.548;2023-02-13T19:19:54;10.93;;;7.05;;
77466;SDS011;66564;42.482;25.548;2023-02-13T19:22:20;12.80;;;7.32;;
77466;SDS011;66564;42.482;25.548;2023-02-13T19:24:46;13.48;;;7.53;;
77466;SDS011;66564;42.482;25.548;2023-02-13T19:27:11;13.88;;;7.47;;
77466;SDS011;66564;42.482;25.548;2023-02-13T19:29:39;13.95;;;7.22;;
77466;SDS011;66564;42.482;25.548;2023-02-13T19:32:05;14.65;;;8.60;;
77466;SDS011;66564;42.482;25.548;2023-02-13T19:34:33;12.48;;;7.78;;
77466;SDS011;66564;42.482;25.548;2023-02-13T19:38:00;12.85;;;7.50;;
77466;SDS011;66564;42.482;25.548;2023-02-13T19:41:26;13.25;;;7.55;;
77466;SDS011;66564;42.482;25.548;2023-02-13T19:44:51;12.90;;;7.22;;
77466;SDS011;66564;42.482;25.548;2023-02-13T19:48:16;16.67;;;8.32;;
77466;SDS011;66564;42.482;25.548;2023-02-13T19:51:41;15.57;;;8.98;;
77466;SDS011;66564;42.482;25.548;2023-02-13T19:55:07;14.27;;;8.40;;
77466;SDS011;66564;42.482;25.548;2023-02-13T19:58:32;17.05;;;8.70;;
77466;SDS011;66564;42.482;25.548;2023-02-13T20:01:14;15.23;;;8.63;;
77466;SDS011;66564;42.482;25.548;2023-02-13T20:04:38;15.05;;;8.13;;
77466;SDS011;66564;42.482;25.548;2023-02-13T20:07:04;13.00;;;8.02;;
77466;SDS011;66564;42.482;25.548;2023-02-13T20:09:31;13.90;;;8.30;;
77466;SDS011;66564;42.482;25.548;2023-02-13T20:11:59;16.10;;;8.77;;
77466;SDS011;66564;42.482;25.548;2023-02-13T20:15:24;15.23;;;8.05;;
77466;SDS011;66564;42.482;25.548;2023-02-13T20:18:49;16.30;;;8.45;;
77466;SDS011;66564;42.482;25.548;2023-02-13T20:22:15;14.82;;;9.18;;
77466;SDS011;66564;42.482;25.548;2023-02-13T20:24:41;14.55;;;9.15;;
77466;SDS011;66564;42.482;25.548;2023-02-13T20:27:11;16.92;;;9.20;;
77466;SDS011;66564;42.482;25.548;2023-02-13T20:30:40;14.13;;;8.65;;
77466;SDS011;66564;42.482;25.548;2023-02-13T20:34:04;15.60;;;8.55;;
77466;SDS011;66564;42.482;25.548;2023-02-13T20:36:30;17.70;;;8.95;;
77466;SDS011;66564;42.482;25.548;2023-02-13T20:39:56;15.50;;;8.50;;
77466;SDS011;66564;42.482;25.548;2023-02-13T20:43:25;17.27;;;9.20;;
77466;SDS011;66564;42.482;25.548;2023-02-13T20:46:50;15.05;;;8.43;;
77466;SDS011;66564;42.482;25.548;2023-02-13T20:50:16;16.83;;;9.98;;
77466;SDS011;66564;42.482;25.548;2023-02-13T20:53:41;18.42;;;9.98;;
77466;SDS011;66564;42.482;25.548;2023-02-13T20:57:06;18.55;;;9.20;;